Latest Weather Observations for Portland Airport

IDV60801

Issued at 8:35 pm EDT Friday 24 October 2014 (issued every 30 minutes, with the page automatically refreshed every 10 minutes)

About weather observations | Map of weather stations | Latest weather observations for VIC | Other Formats
Station Details ID: 090171 Name: CASHMORE AIRPORT Lat: -38.31 Lon: 141.47 Height: 80.9 m
Data from the previous 72 hours. | See also: Recent months at Portland Airport
Date/Time
EDT
Temp
°C
App
Temp
°C
Dew
Point
Rel
Hum
%
Delta-T
°C
Wind Press
QNH
hPa
Press
MSL
hPa
Rain
since 9 am
mm
Dir
 
Spd
km/h
Gust
km/h
Spd
kts
Gust
kts
24/08:30pm 13.6 11.4 10.9 84 1.4 W 13 17 7 9 1015.7 1015.7 0.0
24/08:00pm 13.7 10.7 10.7 82 1.6 W 17 24 9 13 1015.3 1015.3 0.0
24/07:30pm 13.8 10.7 11.5 86 1.2 W 19 24 10 13 1015.0 1015.0 0.0
24/07:00pm 14.0 10.2 11.2 83 1.5 W 22 32 12 17 1014.5 1014.5 0.0
24/06:32pm 14.3 10.6 11.5 83 1.5 W 22 33 12 18 1014.2 1014.2 0.0
24/06:30pm 14.4 10.3 11.6 83 1.5 W 24 33 13 18 1014.2 1014.2 0.0
24/06:00pm 14.7 9.9 11.8 83 1.6 W 28 37 15 20 1013.7 1013.7 0.0
24/05:30pm 15.1 9.9 11.7 80 1.8 W 30 43 16 23 1013.6 1013.6 0.0
24/05:00pm 14.6 9.1 11.9 84 1.5 W 32 44 17 24 1013.4 1013.4 0.0
24/04:30pm 14.9 9.8 12.0 83 1.6 W 30 39 16 21 1013.3 1013.3 0.0
24/04:16pm 15.2 9.2 12.0 81 1.7 W 35 54 19 29 1013.1 1013.1 0.0
24/04:00pm 15.5 9.4 11.9 79 2.0 W 35 48 19 26 1012.9 1012.9 0.0
24/03:30pm 15.9 10.6 12.6 81 1.8 WNW 32 43 17 23 1012.9 1012.9 0.0
24/03:00pm 16.1 10.4 13.0 82 1.7 W 35 44 19 24 1012.7 1012.7 0.0
24/02:30pm 16.7 11.8 13.8 83 1.6 W 32 43 17 23 1012.7 1012.7 0.0
24/02:00pm 16.7 12.8 13.2 80 2.0 W 26 37 14 20 1012.6 1012.6 0.0
24/01:30pm 16.0 12.0 12.9 82 1.7 W 26 37 14 20 1012.6 1012.6 0.0
24/01:00pm 16.3 13.3 13.6 84 1.5 W 22 32 12 17 1012.6 1012.6 0.0
24/12:51pm 15.7 11.5 13.5 87 1.2 WNW 28 39 15 21 1012.7 1012.7 0.0
24/12:30pm 15.2 10.7 13.7 91 0.8 W 30 41 16 22 1013.0 1013.0 0.0
24/12:00pm 14.6 10.5 13.8 95 0.4 W 28 41 15 22 1013.1 1013.1 0.0
24/11:30am 14.5 10.0 13.7 95 0.4 W 30 41 16 22 1013.1 1013.1 0.0
24/11:13am 14.9 9.9 13.4 91 0.8 W 32 43 17 23 1013.2 1013.2 0.0
24/11:08am 15.6 11.0 13.6 88 1.1 W 30 37 16 20 1013.0 1013.0 0.0
24/11:00am 16.3 12.6 14.0 86 1.3 WNW 26 37 14 20 1012.9 1012.9 0.0
24/10:30am 17.3 13.4 14.4 83 1.7 W 28 39 15 21 1012.6 1012.6 0.0
24/10:13am 17.6 12.7 14.3 81 1.9 WNW 33 41 18 22 1012.6 1012.6 0.0
24/10:00am 19.1 18.1 15.6 80 2.1 WNW 15 22 8 12 1011.8 1011.9 0.0
24/09:30am 17.5 15.2 14.6 83 1.7 WNW 20 30 11 16 1011.7 1011.8 0.0
24/09:04am 15.6 15.9 15.1 97 0.3 N 7 13 4 7 1011.9 1012.0 0.0
24/09:00am 15.3 15.8 15.0 98 0.2 N 6 9 3 5 1012.0 1012.1 0.0
24/08:30am 13.4 13.0 13.1 98 0.2 N 7 11 4 6 1011.9 1012.0 0.0
24/08:00am 13.2 12.8 12.9 98 0.2 NNE 7 11 4 6 1011.9 1012.0 0.0
24/07:30am 12.7 12.1 12.2 97 0.3 NE 7 9 4 5 1011.7 1011.8 0.0
24/07:00am 12.6 12.1 12.1 97 0.3 NE 6 7 3 4 1011.5 1011.6 0.0
24/06:30am 12.5 11.8 11.9 96 0.3 NE 7 9 4 5 1011.6 1011.7 0.0
24/06:00am 12.9 12.5 12.3 96 0.3 ENE 6 9 3 5 1011.3 1011.4 0.0
24/05:30am 13.0 12.5 12.2 95 0.4 NE 6 9 3 5 1011.6 1011.7 0.0
24/05:00am 13.4 13.0 12.5 94 0.5 ENE 6 9 3 5 1011.5 1011.6 0.0
24/04:30am 13.4 12.8 12.3 93 0.6 ENE 7 11 4 6 1011.6 1011.7 0.0
24/04:05am 13.6 12.6 12.3 92 0.7 ENE 9 13 5 7 1011.7 1011.8 0.0
24/04:00am 13.7 12.7 12.4 92 0.7 ENE 9 13 5 7 1011.7 1011.8 0.0
24/03:40am 14.2 13.4 12.8 91 0.8 NE 9 13 5 7 1011.9 1012.0 0.0
24/03:30am 14.4 13.6 13.0 91 0.8 ENE 9 17 5 9 1011.9 1012.0 0.0
24/03:00am 14.8 13.4 13.3 91 0.8 NE 13 20 7 11 1012.5 1012.5 0.0
24/02:30am 14.9 13.5 13.4 91 0.8 ENE 13 20 7 11 1012.8 1012.8 0.0
24/02:00am 15.0 14.0 13.5 91 0.8 ENE 11 17 6 9 1013.3 1013.3 0.0
24/01:30am 15.1 13.8 13.6 91 0.8 ENE 13 19 7 10 1013.7 1013.7 0.0
24/01:00am 14.9 13.2 13.6 92 0.7 ENE 15 22 8 12 1013.9 1013.9 0.0
24/12:39am 14.8 13.1 13.7 93 0.6 E 15 26 8 14 1013.9 1013.9 0.0
24/12:30am 14.8 13.2 13.8 94 0.6 ENE 15 22 8 12 1014.0 1014.0 0.0
24/12:00am 14.6 13.7 13.8 95 0.4 ENE 11 19 6 10 1014.5 1014.5 0.0
 
Date/Time
EDT
Temp
°C
App
Temp
°C
Dew
Point
Rel
Hum
%
Delta-T
°C
Wind Press
QNH
hPa
Press
MSL
hPa
Rain
since 9 am
mm
Dir
 
Spd
km/h
Gust
km/h
Spd
kts
Gust
kts
23/11:30pm 14.3 13.0 13.7 96 0.3 ENE 13 19 7 10 1015.1 1015.1 0.0
23/11:00pm 13.7 12.6 13.2 97 0.3 ENE 11 17 6 9 1015.2 1015.2 0.0
23/10:57pm 13.6 12.5 13.1 97 0.3 ENE 11 17 6 9 1015.2 1015.2 0.0
23/10:36pm 13.3 12.5 12.8 97 0.3 ENE 9 15 5 8 1015.5 1015.5 0.0
23/10:30pm 13.4 12.6 12.9 97 0.3 ENE 9 15 5 8 1015.6 1015.6 0.0
23/10:25pm 13.3 12.5 12.8 97 0.3 ENE 9 15 5 8 1015.5 1015.5 0.0
23/10:20pm 13.4 12.6 12.9 97 0.3 ENE 9 15 5 8 1015.5 1015.5 0.0
23/10:00pm 13.3 12.1 12.7 96 0.3 E 11 15 6 8 1015.3 1015.3 0.0
23/09:30pm 12.5 11.3 11.7 95 0.4 E 9 11 5 6 1015.6 1015.6 0.0
23/09:19pm 12.4 11.2 11.6 95 0.4 E 9 11 5 6 1015.8 1015.8 0.0
23/09:08pm 12.3 11.0 11.4 94 0.5 ESE 9 13 5 7 1015.8 1015.8 0.0
23/09:00pm 12.4 11.2 11.5 94 0.5 ESE 9 13 5 7 1015.7 1015.7 0.0
23/08:38pm 12.6 11.7 11.5 93 0.6 ESE 7 11 4 6 1015.7 1015.7 0.0
23/08:30pm 12.8 12.0 11.7 93 0.6 ESE 7 11 4 6 1015.7 1015.7 0.0
23/08:21pm 13.0 12.2 11.7 92 0.7 ESE 7 11 4 6 1015.8 1015.8 0.0
23/08:13pm 13.1 12.0 11.8 92 0.7 ESE 9 13 5 7 1015.7 1015.7 0.0
23/08:00pm 13.4 11.9 12.0 91 0.8 ESE 11 17 6 9 1015.6 1015.6 0.0
23/07:30pm 14.1 12.0 12.3 89 1.0 ESE 15 20 8 11 1015.9 1015.9 0.0
23/07:00pm 14.3 12.6 12.3 88 1.1 ESE 13 20 7 11 1016.1 1016.1 0.0
23/06:30pm 14.6 12.9 12.3 86 1.3 ESE 13 20 7 11 1016.1 1016.1 0.0
23/06:00pm 14.6 11.6 11.9 84 1.5 ESE 19 26 10 14 1016.1 1016.1 0.0
23/05:30pm 14.8 12.2 11.9 83 1.6 ESE 17 24 9 13 1016.2 1016.2 0.0
23/05:00pm 15.2 12.2 12.1 82 1.7 ESE 19 26 10 14 1016.3 1016.3 0.0
23/04:30pm 14.8 11.9 12.3 85 1.4 ESE 19 28 10 15 1016.5 1016.5 0.0
23/04:00pm 14.7 10.8 12.0 84 1.5 SE 24 33 13 18 1016.7 1016.7 0.0
23/03:30pm 15.2 12.0 12.0 81 1.7 SE 20 32 11 17 1017.5 1017.5 0.0
23/03:00pm 14.9 11.9 11.9 82 1.6 ESE 19 26 10 14 1017.6 1017.6 0.0
23/02:30pm 14.7 11.6 11.5 81 1.7 ESE 19 32 10 17 1018.0 1018.0 0.0
23/02:00pm 14.3 10.8 10.9 80 1.8 ESE 20 30 11 16 1018.3 1018.3 0.0
23/01:30pm 14.2 10.8 11.4 83 1.5 E 20 32 11 17 1018.7 1018.7 0.0
23/01:00pm 14.3 10.6 11.5 83 1.5 E 22 32 12 17 1019.1 1019.1 0.0
23/12:30pm 14.0 10.6 11.2 83 1.5 ESE 20 35 11 19 1019.5 1019.5 0.0
23/12:00pm 13.9 10.5 11.2 84 1.4 ESE 20 33 11 18 1019.7 1019.7 0.0
23/11:30am 13.6 9.5 11.3 86 1.2 ESE 24 37 13 20 1020.0 1020.0 0.0
23/11:00am 13.6 10.3 11.7 88 1.0 ESE 20 32 11 17 1020.4 1020.4 0.0
23/10:30am 12.7 8.2 11.4 92 0.7 SE 26 41 14 22 1020.6 1020.6 0.0
23/10:22am 12.8 8.4 11.7 93 0.6 SE 26 39 14 21 1020.6 1020.6 0.0
23/10:00am 13.0 9.0 11.7 92 0.7 ESE 24 39 13 21 1020.7 1020.7 0.0
23/09:58am 13.0 8.6 11.6 91 0.7 ESE 26 39 14 21 1020.8 1020.8 0.0
23/09:30am 12.6 8.4 11.2 91 0.7 ESE 24 33 13 18 1020.9 1020.9 0.0
23/09:00am 12.5 8.7 11.1 91 0.7 SE 22 35 12 19 1021.0 1021.0 0.0
23/08:30am 12.6 9.2 11.2 91 0.7 ESE 20 30 11 16 1020.9 1020.9 0.0
23/08:00am 12.5 9.1 11.4 93 0.6 SE 20 32 11 17 1020.9 1020.9 0.0
23/07:30am 12.4 9.1 11.0 91 0.7 ESE 19 30 10 16 1020.9 1020.9 0.0
23/07:00am 12.3 8.9 10.7 90 0.8 ESE 19 30 10 16 1020.8 1020.8 0.0
23/06:30am 12.6 9.2 11.2 91 0.7 SE 20 28 11 15 1020.5 1020.5 0.0
23/06:00am 12.6 9.1 10.8 89 0.9 SE 20 28 11 15 1020.4 1020.4 0.0
23/05:30am 12.5 8.7 11.2 92 0.7 SE 22 30 12 16 1020.5 1020.5 0.0
23/05:18am 12.6 9.2 11.2 91 0.7 SE 20 28 11 15 1020.3 1020.3 0.0
23/05:00am 12.4 9.1 10.8 90 0.8 SE 19 28 10 15 1020.3 1020.3 0.0
23/04:30am 12.4 9.1 11.5 94 0.5 SE 20 28 11 15 1020.4 1020.4 0.0
23/04:23am 12.3 8.9 11.4 94 0.5 SE 20 28 11 15 1020.3 1020.3 0.0
23/04:13am 12.4 9.7 11.6 95 0.4 SE 17 24 9 13 1020.4 1020.4 0.0
23/04:00am 12.4 9.1 11.6 95 0.4 SE 20 28 11 15 1020.5 1020.5 0.0
23/03:59am 12.5 9.2 11.7 95 0.4 SE 20 28 11 15 1020.5 1020.5 0.0
23/03:58am 12.5 9.2 11.7 95 0.4 SE 20 28 11 15 1020.5 1020.5 0.0
23/03:43am 12.4 9.3 11.6 95 0.4 SE 19 26 10 14 1020.5 1020.5 0.0
23/03:34am 12.4 9.3 11.6 95 0.4 SE 19 26 10 14 1020.4 1020.4 0.0
23/03:30am 12.4 9.7 11.6 95 0.4 SE 17 26 9 14 1020.5 1020.5 0.0
23/03:23am 12.4 9.3 11.6 95 0.4 SE 19 32 10 17 1020.5 1020.5 0.0
23/03:21am 12.4 9.3 11.6 95 0.4 SE 19 32 10 17 1020.5 1020.5 0.0
23/03:00am 12.6 9.5 11.7 94 0.5 SE 19 26 10 14 1020.8 1020.8 0.0
23/02:57am 12.6 9.8 11.5 93 0.6 SE 17 26 9 14 1020.8 1020.8 0.0
23/02:30am 12.5 10.2 11.6 94 0.5 SE 15 20 8 11 1020.9 1020.9 0.0
23/02:00am 12.6 9.9 11.7 94 0.5 SE 17 22 9 12 1020.9 1020.9 0.0
23/01:30am 12.5 9.8 11.7 95 0.4 SE 17 22 9 12 1020.9 1020.9 0.0
23/01:00am 12.5 9.8 11.6 94 0.5 SSE 17 28 9 15 1021.3 1021.3 0.0
23/12:30am 12.6 10.3 11.7 94 0.5 SSE 15 26 8 14 1021.3 1021.3 0.0
23/12:03am 12.7 10.8 11.8 94 0.5 SSE 13 22 7 12 1021.4 1021.4 0.0
23/12:00am 12.7 10.4 11.8 94 0.5 SSE 15 24 8 13 1021.4 1021.4 0.0
 
Date/Time
EDT
Temp
°C
App
Temp
°C
Dew
Point
Rel
Hum
%
Delta-T
°C
Wind Press
QNH
hPa
Press
MSL
hPa
Rain
since 9 am
mm
Dir
 
Spd
km/h
Gust
km/h
Spd
kts
Gust
kts
22/11:53pm 12.6 9.9 11.7 94 0.5 SE 17 24 9 13 1021.4 1021.4 0.0
22/11:34pm 12.9 10.3 12.0 94 0.5 SE 17 24 9 13 1021.4 1021.4 0.0
22/11:30pm 12.9 10.7 12.0 94 0.5 SSE 15 24 8 13 1021.4 1021.4 0.0
22/11:16pm 13.0 10.7 11.9 93 0.6 SSE 15 22 8 12 1021.3 1021.3 0.0
22/11:00pm 13.0 10.3 11.7 92 0.7 SSE 17 26 9 14 1021.3 1021.3 0.0
22/10:30pm 13.2 10.2 11.8 91 0.8 SE 19 30 10 16 1021.2 1021.2 0.0
22/10:00pm 13.0 9.7 11.6 91 0.7 SE 20 28 11 15 1021.2 1021.2 0.0
22/09:30pm 13.0 10.3 11.7 92 0.7 SSE 17 28 9 15 1021.2 1021.2 0.0
22/09:00pm 13.2 10.5 11.6 90 0.9 SSE 17 30 9 16 1021.1 1021.1 0.0
22/08:30pm 13.2 10.5 11.6 90 0.9 SSE 17 30 9 16 1020.7 1020.7 0.0
22/08:00pm 13.4 10.7 11.8 90 0.9 SSE 17 28 9 15 1020.3 1020.3 0.0
22/07:30pm 13.5 10.2 11.6 88 1.0 S 20 32 11 17 1019.6 1019.6 0.0
22/07:00pm 13.6 10.4 12.0 90 0.9 S 20 30 11 16 1019.2 1019.2 0.0
22/06:30pm 13.6 10.7 12.2 91 0.8 S 19 30 10 16 1018.7 1018.7 0.0
22/06:00pm 14.1 11.3 12.5 90 0.9 S 19 30 10 16 1018.3 1018.3 0.0
22/05:30pm 14.5 11.7 12.5 88 1.1 S 19 32 10 17 1018.1 1018.1 0.0
22/05:00pm 14.8 12.1 12.8 88 1.1 S 19 30 10 16 1017.9 1017.9 0.0
22/04:30pm 15.0 12.1 13.0 88 1.1 S 20 30 11 16 1018.1 1018.1 0.0
22/04:00pm 15.5 13.0 13.5 88 1.1 SSW 19 32 10 17 1018.1 1018.1 0.0
22/03:30pm 15.9 12.7 13.2 84 1.5 SSW 22 35 12 19 1018.1 1018.1 0.0
22/03:14pm 17.2 14.5 14.5 84 1.6 SSW 22 33 12 18 1018.1 1018.1 0.0
22/03:00pm 17.0 14.4 13.9 82 1.8 SSW 20 30 11 16 1018.0 1018.0 0.0
22/02:30pm 17.9 15.6 14.2 79 2.1 SW 19 26 10 14 1018.0 1018.0 0.0
22/02:00pm 17.7 14.9 13.2 75 2.5 SSW 20 30 11 16 1017.9 1017.9 0.0
22/01:30pm 20.9 19.1 14.5 67 3.8 SSW 17 24 9 13 1017.4 1017.4 0.0
22/01:00pm 23.6 21.5 13.5 53 5.9 WSW 17 22 9 12 1017.1 1017.1 0.0
22/12:30pm 23.4 20.0 11.1 46 6.9 WSW 20 28 11 15 1017.1 1017.1 0.0
22/12:00pm 23.0 20.7 12.9 53 5.8 WSW 17 24 9 13 1017.3 1017.3 0.0
22/11:30am 20.3 17.2 11.5 57 4.9 WSW 19 24 10 13 1017.6 1017.6 0.0
22/11:00am 23.4 22.1 13.6 54 5.7 WNW 13 20 7 11 1017.4 1017.4 0.0
22/10:30am 23.5 23.0 13.7 54 5.7 NNW 9 22 5 12 1017.3 1017.3 0.0
22/10:00am 22.8 23.0 14.1 58 5.1 NE 6 11 3 6 1017.3 1017.3 0.0
22/09:30am 21.0 22.3 15.1 69 3.5 N 2 7 1 4 1017.1 1017.1 0.0
22/09:00am 19.3 18.6 13.2 68 3.5 NNE 9 11 5 6 1016.9 1016.9 0.0
22/08:30am 19.5 18.8 12.0 62 4.2 W 7 9 4 5 1017.1 1017.1 0.0
22/08:00am 19.5 18.2 11.3 59 4.5 W 9 11 5 6 1017.0 1017.0 0.0
22/07:30am 17.0 15.8 10.4 65 3.5 NW 7 9 4 5 1016.5 1016.5 0.0
22/07:00am 15.5 13.4 9.8 69 3.0 W 11 13 6 7 1017.1 1017.1 0.0
22/06:30am 16.6 14.7 10.5 67 3.3 W 11 17 6 9 1016.9 1016.9 0.0
22/06:00am 17.7 14.9 10.1 61 4.0 WNW 15 20 8 11 1017.0 1017.0 0.0
22/05:30am 19.1 15.6 10.1 56 4.8 W 19 22 10 12 1017.0 1017.0 0.0
22/05:00am 18.1 14.8 9.7 58 4.4 N 17 22 9 12 1016.4 1016.4 0.0
22/04:30am 17.1 13.9 10.0 63 3.8 N 17 20 9 11 1016.3 1016.3 0.0
22/04:00am 16.4 13.6 10.0 66 3.4 N 15 19 8 10 1016.6 1016.6 0.0
22/03:30am 16.6 14.1 11.1 70 3.0 N 15 20 8 11 1016.7 1016.7 0.0
22/03:00am 15.7 13.7 11.5 76 2.3 N 13 19 7 10 1016.8 1016.8 0.0
22/02:30am 15.7 14.2 11.9 78 2.1 N 11 15 6 8 1017.2 1017.2 0.0
22/02:00am 14.9 13.5 12.2 84 1.5 NNE 11 15 6 8 1017.5 1017.5 0.0
22/01:30am 13.9 12.8 11.9 88 1.1 NE 9 13 5 7 1018.2 1018.2 0.0
22/01:00am 13.4 12.6 11.8 90 0.9 NE 7 9 4 5 1018.5 1018.5 0.0
22/12:30am 13.0 11.8 11.6 91 0.7 NE 9 11 5 6 1018.8 1018.8 0.0
22/12:00am 13.2 12.1 11.9 92 0.7 NE 9 11 5 6 1019.2 1019.2 0.0
 
Date/Time
EDT
Temp
°C
App
Temp
°C
Dew
Point
Rel
Hum
%
Delta-T
°C
Wind Press
QNH
hPa
Press
MSL
hPa
Rain
since 9 am
mm
Dir
 
Spd
km/h
Gust
km/h
Spd
kts
Gust
kts
21/11:30pm 12.5 11.2 11.2 92 0.7 NE 9 9 5 5 1019.7 1019.7 0.0
21/11:00pm 13.6 12.6 12.2 91 0.8 NE 9 11 5 6 1019.9 1019.9 0.0
21/10:30pm 14.0 13.4 12.4 90 0.9 ENE 7 11 4 6 1020.2 1020.2 0.0
21/10:00pm 14.4 13.4 12.4 88 1.1 ENE 9 13 5 7 1020.6 1020.6 0.0
21/09:30pm 14.3 12.9 12.3 88 1.1 ENE 11 15 6 8 1020.6 1020.6 0.0
21/09:00pm 14.1 13.0 12.0 87 1.1 ENE 9 11 5 6 1020.7 1020.7 0.0

Other Formats:

Comma delimited format used in spreadsheet applications
http://www.bom.gov.au/fwo/IDV60801/IDV60801.94828.axf

JavaScript Object Notation format (JSON) in row-major order
http://www.bom.gov.au/fwo/IDV60801/IDV60801.94828.json